Time;durP1;ratioP1;P1;durP2;ratioP2;P2;SDS_P1;SDS_P2;PMS_P1;PMS_P2;Temp;Humidity;BMP_temperature;BMP_pressure;BME280_temperature;BME280_humidity;BME280_pressure;Samples;Min_cycle;Max_cycle;Signal;HPM_P1;HPM_P2
2021/01/05 00:00:13;;;;;;;92.25;41.95;;;180.00;2252.80;;;;;;5053109;28;20435;-71
2021/01/05 00:02:39;;;;;;;90.43;42.38;;;179.80;2252.80;;;;;;5052780;28;20032;-70
2021/01/05 00:05:06;;;;;;;99.60;43.72;;;179.80;2252.80;;;;;;5053202;28;20029;-71
2021/01/05 00:07:32;;;;;;;95.63;44.47;;;179.90;2252.80;;;;;;5051815;28;20036;-71
2021/01/05 00:09:58;;;;;;;103.28;47.42;;;179.90;2252.80;;;;;;5053149;28;20022;-71
2021/01/05 00:12:24;;;;;;;105.28;47.15;;;179.90;2252.80;;;;;;5053007;28;20471;-69
2021/01/05 00:14:50;;;;;;;111.70;48.45;;;179.80;2252.80;;;;;;5052942;28;20512;-70
2021/01/05 00:17:18;;;;;;;100.25;47.20;;;179.90;2252.80;;;;;;5052763;28;20116;-69
2021/01/05 00:19:45;;;;;;;91.10;45.20;;;179.80;2252.80;;;;;;5052893;28;20029;-70
2021/01/05 00:22:12;;;;;;;107.95;46.50;;;179.80;2252.80;;;;;;5052977;28;20025;-72
2021/01/05 00:24:37;;;;;;;106.47;47.05;;;179.80;2252.80;;;;;;5052820;28;20056;-69
2021/01/05 00:27:04;;;;;;;105.85;49.75;;;179.70;2252.80;;;;;;5052906;28;20021;-72
2021/01/05 00:29:30;;;;;;;105.25;46.35;;;179.70;2252.80;;;;;;5052793;28;20029;-71
2021/01/05 00:32:08;;;;;;;98.78;46.88;;;179.80;2252.80;;;;;;5052725;28;20032;-70
2021/01/05 00:34:34;;;;;;;106.90;46.47;;;179.80;2252.80;;;;;;5051695;28;20032;-69
2021/01/05 00:37:00;;;;;;;114.88;49.17;;;179.70;2252.80;;;;;;5051445;28;20025;-70
2021/01/05 00:39:26;;;;;;;111.97;47.83;;;179.70;2252.80;;;;;;5051702;28;20025;-70
2021/01/05 00:41:52;;;;;;;106.45;46.97;;;179.70;2252.80;;;;;;5052750;28;20029;-69
2021/01/05 00:44:18;;;;;;;124.35;53.25;;;179.70;2252.80;;;;;;5053169;28;20066;-70
2021/01/05 00:46:44;;;;;;;133.45;55.08;;;179.70;2252.80;;;;;;5052772;28;20052;-70
2021/01/05 00:49:10;;;;;;;139.18;55.65;;;179.70;2252.80;;;;;;5052740;28;20075;-70
2021/01/05 00:51:35;;;;;;;142.32;57.40;;;179.80;2252.80;;;;;;5052744;28;20071;-70
2021/01/05 00:54:01;;;;;;;133.80;50.53;;;179.80;2252.80;;;;;;5052899;28;20056;-69
2021/01/05 00:56:27;;;;;;;108.72;45.67;;;179.70;2252.80;;;;;;5054480;28;20059;-72
2021/01/05 00:58:53;;;;;;;107.97;45.80;;;179.60;2252.80;;;;;;5056448;28;20076;-72
2021/01/05 01:01:21;;;;;;;112.22;47.65;;;179.60;2252.80;;;;;;5056623;28;20029;-71
2021/01/05 01:03:50;;;;;;;107.03;44.45;;;179.50;2252.80;;;;;;5055155;28;20124;-70
2021/01/05 01:06:18;;;;;;;110.78;46.67;;;179.50;2252.80;;;;;;5056338;28;20063;-69
2021/01/05 01:08:44;;;;;;;100.63;44.35;;;179.30;2252.80;;;;;;5056309;28;20118;-71
2021/01/05 01:11:11;;;;;;;111.38;44.80;;;179.40;2252.80;;;;;;5056316;28;20025;-72
2021/01/05 01:13:37;;;;;;;116.53;47.25;;;179.40;2252.80;;;;;;5056249;28;20108;-71
2021/01/05 01:16:04;;;;;;;116.55;47.67;;;179.40;2252.80;;;;;;5056195;28;20103;-72
2021/01/05 01:18:30;;;;;;;105.72;45.83;;;179.40;2252.80;;;;;;5056036;28;20132;-72
2021/01/05 01:20:55;;;;;;;127.00;49.17;;;179.40;2252.80;;;;;;5056154;28;20100;-72
2021/01/05 01:23:21;;;;;;;115.05;44.10;;;179.40;2252.80;;;;;;5054753;28;20051;-72
2021/01/05 01:25:48;;;;;;;109.75;44.28;;;179.30;2252.80;;;;;;5056028;28;20035;-71
2021/01/05 01:28:14;;;;;;;108.75;43.30;;;179.40;2252.80;;;;;;5055993;28;20036;-72
2021/01/05 01:30:40;;;;;;;119.43;44.92;;;179.30;2252.80;;;;;;5055892;28;20101;-69
2021/01/05 01:33:07;;;;;;;100.35;39.45;;;179.30;2252.80;;;;;;5055899;28;20029;-70
2021/01/05 01:35:33;;;;;;;96.72;37.80;;;179.20;2252.80;;;;;;5056003;28;20025;-72
2021/01/05 01:37:59;;;;;;;86.40;37.67;;;179.30;2252.80;;;;;;5055682;28;20394;-71
2021/01/05 01:40:34;;;;;;;93.40;38.35;;;179.30;2252.80;;;;;;5055753;28;20056;-69
2021/01/05 01:43:02;;;;;;;89.90;37.78;;;179.40;2252.80;;;;;;5055889;28;20025;-72
2021/01/05 01:45:28;;;;;;;91.82;37.50;;;179.40;2252.80;;;;;;5055641;28;20029;-72
2021/01/05 01:47:55;;;;;;;87.18;37.60;;;179.30;2252.80;;;;;;5055564;28;20106;-70
2021/01/05 01:50:27;;;;;;;70.22;32.75;;;179.40;2252.80;;;;;;5054316;28;20381;-71
2021/01/05 01:53:24;;;;;;;65.25;30.90;;;179.50;2252.80;;;;;;5055668;28;20021;-72
2021/01/05 01:56:23;;;;;;;62.03;30.00;;;179.50;2252.80;;;;;;5054051;28;20032;-69
2021/01/05 01:59:18;;;;;;;61.75;31.10;;;179.40;2252.80;;;;;;5055349;28;20029;-70
2021/01/05 02:01:44;;;;;;;58.95;30.38;;;179.40;2252.80;;;;;;5050362;28;20073;-72
2021/01/05 02:04:44;;;;;;;68.03;32.15;;;179.30;2252.80;;;;;;5055247;28;20056;-72
2021/01/05 02:07:16;;;;;;;58.08;29.75;;;179.30;2252.80;;;;;;5054786;28;20028;-71
2021/01/05 02:10:04;;;;;;;59.97;31.35;;;179.40;2252.80;;;;;;5055580;28;20039;-69
2021/01/05 02:13:00;;;;;;;63.20;31.33;;;179.20;2252.80;;;;;;5055341;28;20489;-70
2021/01/05 02:15:35;;;;;;;65.70;32.75;;;179.20;2252.80;;;;;;5055099;28;20029;-70
2021/01/05 02:18:10;;;;;;;67.30;35.15;;;179.20;2252.80;;;;;;5055113;28;20040;-72
2021/01/05 02:20:48;;;;;;;68.30;34.08;;;154.50;2252.80;;;;;;5054999;28;20032;-71
2021/01/05 02:23:44;;;;;;;71.20;32.45;;;154.50;2252.80;;;;;;5055054;28;20510;-70
2021/01/05 02:26:10;;;;;;;72.82;32.58;;;154.30;2252.80;;;;;;5052847;28;20036;-72
2021/01/05 02:28:41;;;;;;;77.90;33.78;;;154.20;2252.80;;;;;;5054786;28;20032;-72
2021/01/05 02:31:45;;;;;;;74.05;31.42;;;154.20;2252.80;;;;;;5054807;28;20071;-69
2021/01/05 02:34:31;;;;;;;73.03;34.13;;;154.10;2252.80;;;;;;5054832;28;20021;-72
2021/01/05 02:37:22;;;;;;;77.13;35.00;;;154.10;2252.80;;;;;;5054548;28;20060;-71
2021/01/05 02:40:16;;;;;;;75.55;34.10;;;154.20;2252.80;;;;;;5054292;28;20044;-70
2021/01/05 02:43:09;;;;;;;76.22;34.67;;;154.20;2252.80;;;;;;5054649;28;20028;-71
2021/01/05 02:45:59;;;;;;;88.97;36.80;;;154.20;2252.80;;;;;;5054539;28;20163;-69
2021/01/05 02:48:46;;;;;;;83.63;34.53;;;154.20;2252.80;;;;;;5053216;28;20025;-72
2021/01/05 02:51:21;;;;;;;77.60;33.17;;;154.20;2252.80;;;;;;5054489;28;20108;-71
2021/01/05 02:54:29;;;;;;;83.05;34.72;;;154.20;2252.80;;;;;;5054237;28;20017;-71
2021/01/05 02:57:16;;;;;;;83.18;35.38;;;154.20;2252.80;;;;;;5053983;28;20036;-72
2021/01/05 03:00:08;;;;;;;79.50;34.53;;;154.20;2252.80;;;;;;5054421;28;20021;-69
2021/01/05 03:02:40;;;;;;;76.35;35.08;;;154.20;2252.80;;;;;;5032056;28;20128;-71
2021/01/05 03:05:08;;;;;;;78.95;34.65;;;154.10;2252.80;;;;;;5032190;28;20025;-70
2021/01/05 03:07:35;;;;;;;72.88;34.05;;;154.20;2252.80;;;;;;5032175;28;20045;-70
2021/01/05 03:10:14;;;;;;;70.85;34.05;;;154.20;2252.80;;;;;;5032077;28;20031;-69
2021/01/05 03:13:07;;;;;;;76.85;36.13;;;154.20;2252.80;;;;;;5032012;28;20112;-70
2021/01/05 03:15:45;;;;;;;73.50;34.45;;;154.20;2252.80;;;;;;5032003;28;20028;-72
2021/01/05 03:18:27;;;;;;;70.70;32.85;;;154.20;2252.80;;;;;;5031283;28;20440;-72
2021/01/05 03:21:01;;;;;;;70.72;32.05;;;154.20;2252.80;;;;;;5032153;28;20417;-69
2021/01/05 03:23:30;;;;;;;77.38;34.97;;;154.20;2252.80;;;;;;5031817;28;20032;-70
2021/01/05 03:26:00;;;;;;;74.55;36.78;;;154.20;2252.80;;;;;;5031823;28;20034;-70
2021/01/05 03:28:28;;;;;;;79.13;36.50;;;154.20;2252.80;;;;;;5031766;28;20095;-72
2021/01/05 03:31:03;;;;;;;66.72;32.72;;;154.30;2252.80;;;;;;5031689;28;20077;-72
2021/01/05 03:33:29;;;;;;;71.53;36.22;;;154.20;2252.80;;;;;;5031817;28;20071;-71
2021/01/05 03:35:55;;;;;;;68.47;34.65;;;154.10;2252.80;;;;;;5031593;28;20127;-70
2021/01/05 03:38:21;;;;;;;73.63;37.95;;;154.10;2252.80;;;;;;5033527;28;20045;-71
2021/01/05 03:40:47;;;;;;;73.17;34.83;;;154.20;2252.80;;;;;;5053544;28;20048;-69
2021/01/05 03:43:13;;;;;;;78.05;36.63;;;154.30;2252.80;;;;;;5053605;28;20546;-72
2021/01/05 03:45:39;;;;;;;71.67;35.50;;;154.30;2252.80;;;;;;5053452;28;20095;-72
2021/01/05 03:48:05;;;;;;;68.60;34.17;;;154.30;2252.80;;;;;;5053445;28;20385;-72
2021/01/05 03:50:31;;;;;;;72.70;35.97;;;154.30;2252.80;;;;;;5053454;28;20075;-72
2021/01/05 03:52:57;;;;;;;61.92;33.28;;;154.30;2252.80;;;;;;5053652;28;20028;-70
2021/01/05 03:55:23;;;;;;;67.35;32.65;;;154.20;2252.80;;;;;;5053355;28;20095;-71
2021/01/05 03:57:49;;;;;;;71.72;33.83;;;154.20;2252.80;;;;;;5053048;28;20053;-72
2021/01/05 04:00:20;;;;;;;65.10;31.77;;;154.20;2252.80;;;;;;5053451;28;20028;-71
2021/01/05 04:02:46;;;;;;;68.55;32.95;;;154.20;2252.80;;;;;;5053312;28;20021;-70
2021/01/05 04:05:15;;;;;;;63.03;31.17;;;154.20;2252.80;;;;;;5053517;28;20365;-70
2021/01/05 04:07:41;;;;;;;64.90;30.73;;;154.20;2252.80;;;;;;5053170;28;20081;-71
2021/01/05 04:10:09;;;;;;;61.90;28.37;;;154.20;2252.80;;;;;;5053216;28;20024;-69
2021/01/05 04:12:36;;;;;;;52.90;26.88;;;154.20;2252.80;;;;;;5053173;28;20032;-69
2021/01/05 04:15:05;;;;;;;43.75;24.17;;;154.20;2252.80;;;;;;5053074;28;20021;-70
2021/01/05 04:17:31;;;;;;;41.67;22.67;;;154.10;2252.80;;;;;;5052976;28;20025;-71
2021/01/05 04:19:56;;;;;;;47.07;23.63;;;154.10;2252.80;;;;;;5053111;28;20013;-72
2021/01/05 04:22:22;;;;;;;40.83;22.03;;;154.20;2252.80;;;;;;5053041;28;20374;-72
2021/01/05 04:24:48;;;;;;;41.67;22.20;;;154.20;2252.80;;;;;;5053072;28;20029;-70
2021/01/05 04:27:14;;;;;;;41.33;22.93;;;154.20;2252.80;;;;;;5053014;28;20104;-70
2021/01/05 04:29:40;;;;;;;42.73;22.67;;;154.20;2252.80;;;;;;5052430;28;20539;-72
2021/01/05 04:32:06;;;;;;;37.88;21.50;;;154.20;2252.80;;;;;;5057025;28;20354;-72
2021/01/05 04:34:32;;;;;;;36.93;21.10;;;154.10;2252.80;;;;;;5056934;28;20083;-72
2021/01/05 04:36:57;;;;;;;37.38;22.50;;;154.10;2252.80;;;;;;5056856;28;20021;-72
2021/01/05 04:39:23;;;;;;;41.87;24.63;;;154.20;2252.80;;;;;;5056950;28;20108;-72
2021/01/05 04:41:58;;;;;;;45.63;24.70;;;154.20;2252.80;;;;;;5056836;28;20018;-70
2021/01/05 04:44:26;;;;;;;42.15;24.08;;;154.10;2252.80;;;;;;5056883;28;20039;-71
2021/01/05 04:47:11;;;;;;;49.93;24.93;;;154.10;2252.80;;;;;;5056759;28;20075;-69
2021/01/05 04:49:59;;;;;;;45.45;24.17;;;154.10;2252.80;;;;;;5057021;28;20116;-69
2021/01/05 04:52:59;;;;;;;46.50;25.45;;;154.00;2252.80;;;;;;5056853;28;20037;-72
2021/01/05 04:55:34;;;;;;;41.05;22.40;;;154.00;2252.80;;;;;;5055240;28;20021;-72
2021/01/05 04:58:09;;;;;;;40.70;22.27;;;153.90;2252.80;;;;;;5056364;28;20045;-70
2021/01/05 05:00:39;;;;;;;45.20;24.70;;;153.90;2252.80;;;;;;5056849;28;20071;-72
2021/01/05 05:03:28;;;;;;;47.87;25.43;;;153.90;2252.80;;;;;;5056732;28;20112;-69
2021/01/05 05:06:16;;;;;;;57.10;26.60;;;153.90;2252.80;;;;;;5055339;28;20396;-70
2021/01/05 05:09:11;;;;;;;59.03;28.10;;;153.90;2252.80;;;;;;5056621;28;20029;-71
2021/01/05 05:12:16;;;;;;;62.87;28.57;;;153.80;2252.80;;;;;;5055090;28;20495;-71
2021/01/05 05:15:03;;;;;;;67.88;29.23;;;153.80;2252.80;;;;;;5055052;28;20025;-72
2021/01/05 05:17:39;;;;;;;56.15;25.77;;;153.70;2252.80;;;;;;5056137;28;20033;-69
2021/01/05 05:20:29;;;;;;;61.20;27.17;;;153.60;2252.80;;;;;;5056232;28;20032;-69
2021/01/05 05:23:38;;;;;;;58.07;27.87;;;153.60;2252.80;;;;;;5056131;28;20071;-71
2021/01/05 05:26:19;;;;;;;62.03;27.70;;;153.60;2252.80;;;;;;5056233;28;20051;-71
2021/01/05 05:29:03;;;;;;;64.45;29.80;;;153.60;2252.80;;;;;;5056072;28;20108;-70
2021/01/05 05:31:32;;;;;;;62.92;33.10;;;153.60;2252.80;;;;;;5056016;28;20021;-71
2021/01/05 05:34:24;;;;;;;65.70;30.52;;;128.90;2252.80;;;;;;5055987;28;20473;-70
2021/01/05 05:37:11;;;;;;;62.73;30.80;;;128.80;2252.80;;;;;;5055983;28;20044;-69
2021/01/05 05:39:44;;;;;;;65.20;30.17;;;128.90;2252.80;;;;;;5055809;28;20048;-70
2021/01/05 05:42:24;;;;;;;83.23;28.93;;;128.90;2252.80;;;;;;5055003;28;20161;-71
2021/01/05 05:45:12;;;;;;;70.70;30.17;;;128.80;2252.80;;;;;;5055764;28;20025;-72
2021/01/05 05:47:56;;;;;;;79.93;29.80;;;128.70;2252.80;;;;;;5055845;28;20491;-72
2021/01/05 05:50:44;;;;;;;78.05;32.35;;;128.60;2252.80;;;;;;5055719;28;20032;-71
2021/01/05 05:53:20;;;;;;;88.70;31.60;;;128.60;2252.80;;;;;;5055866;28;20024;-71
2021/01/05 05:56:01;;;;;;;81.20;32.73;;;128.50;2252.80;;;;;;5055522;28;20021;-70
2021/01/05 05:58:33;;;;;;;76.37;30.33;;;128.50;2252.80;;;;;;5055745;28;20037;-72
2021/01/05 06:01:03;;;;;;;74.70;32.37;;;128.40;2252.80;;;;;;5055753;28;20021;-71
2021/01/05 06:03:29;;;;;;;73.80;30.70;;;128.40;2252.80;;;;;;5055507;28;20025;-71
2021/01/05 06:05:55;;;;;;;67.37;30.60;;;128.40;2252.80;;;;;;5055597;28;20508;-71
2021/01/05 06:08:23;;;;;;;72.67;31.60;;;128.30;2252.80;;;;;;5055378;28;20056;-71
2021/01/05 06:10:50;;;;;;;76.00;31.60;;;128.30;2252.80;;;;;;5055547;28;20025;-69
2021/01/05 06:13:16;;;;;;;70.20;31.93;;;128.20;2252.80;;;;;;5053977;28;20033;-70
2021/01/05 06:15:42;;;;;;;61.43;31.00;;;128.20;2252.80;;;;;;5055387;28;20036;-69
2021/01/05 06:18:11;;;;;;;56.60;28.70;;;128.20;2252.80;;;;;;5055025;28;20393;-72
2021/01/05 06:20:38;;;;;;;62.50;29.90;;;128.20;2252.80;;;;;;5055088;28;20028;-72
2021/01/05 06:23:04;;;;;;;57.57;27.83;;;128.10;2252.80;;;;;;5055048;28;20021;-71
2021/01/05 06:25:30;;;;;;;72.87;31.97;;;128.00;2252.80;;;;;;5054918;28;20021;-69
2021/01/05 06:27:56;;;;;;;74.53;34.43;;;128.00;2252.80;;;;;;5054912;28;20036;-70
2021/01/05 06:30:23;;;;;;;74.87;36.00;;;128.00;2252.80;;;;;;5054865;28;20108;-71
2021/01/05 06:32:49;;;;;;;68.40;33.70;;;128.10;2252.80;;;;;;5054792;28;20029;-72
2021/01/05 06:35:18;;;;;;;73.57;31.00;;;128.10;2252.80;;;;;;5053540;28;20040;-71
2021/01/05 06:37:44;;;;;;;65.17;29.63;;;128.00;2252.80;;;;;;5054588;28;20037;-72
2021/01/05 06:40:10;;;;;;;71.00;30.37;;;103.30;2227.20;;;;;;5054677;28;20104;-69
2021/01/05 06:42:37;;;;;;;64.47;28.83;;;128.00;2252.80;;;;;;5054447;28;20557;-70
2021/01/05 06:45:06;;;;;;;59.67;29.27;;;103.30;2227.20;;;;;;5054816;28;20028;-69
2021/01/05 06:47:32;;;;;;;64.40;28.93;;;103.30;2227.20;;;;;;5054410;28;20074;-70
2021/01/05 06:49:58;;;;;;;60.00;28.33;;;103.30;2227.20;;;;;;5054525;28;20381;-72
2021/01/05 06:52:25;;;;;;;66.07;28.77;;;128.00;2252.80;;;;;;5053096;28;20033;-72
2021/01/05 06:54:51;;;;;;;69.23;32.60;;;103.00;2227.20;;;;;;5054345;28;20461;-72
2021/01/05 06:57:18;;;;;;;78.03;33.63;;;103.30;2227.20;;;;;;5053988;28;20089;-72
2021/01/05 06:59:43;;;;;;;75.63;36.87;;;128.00;2252.80;;;;;;5054348;28;20420;-71
2021/01/05 07:02:09;;;;;;;108.27;44.97;;;128.00;2252.80;;;;;;5053016;28;20029;-69
2021/01/05 07:04:36;;;;;;;91.97;43.93;;;128.00;2252.80;;;;;;5054339;28;20512;-69
2021/01/05 07:07:02;;;;;;;103.27;47.03;;;103.30;2227.20;;;;;;5053027;28;20074;-69
2021/01/05 07:09:30;;;;;;;97.90;50.10;;;103.30;2227.20;;;;;;5054300;28;20535;-70
2021/01/05 07:11:57;;;;;;;90.23;49.57;;;128.00;2252.80;;;;;;5054115;28;20021;-71
2021/01/05 07:14:24;;;;;;;80.80;43.90;;;103.30;2227.20;;;;;;5054079;28;20469;-72
2021/01/05 07:16:51;;;;;;;74.53;38.23;;;128.00;2252.80;;;;;;5054045;28;20021;-72
2021/01/05 07:19:17;;;;;;;59.93;32.60;;;128.00;2252.80;;;;;;5054101;28;20060;-70
2021/01/05 07:21:43;;;;;;;51.10;29.30;;;103.30;2227.20;;;;;;5053894;28;20056;-69
2021/01/05 07:24:09;;;;;;;47.77;28.13;;;103.30;2227.20;;;;;;5053825;28;20021;-69
2021/01/05 07:26:36;;;;;;;43.13;25.07;;;103.30;2227.20;;;;;;5053848;28;20049;-69
2021/01/05 07:29:02;;;;;;;46.77;25.63;;;103.30;2227.20;;;;;;5053768;28;20021;-71
2021/01/05 07:31:29;;;;;;;54.87;28.07;;;103.30;2227.20;;;;;;5053702;28;20029;-69
2021/01/05 07:33:55;;;;;;;47.60;25.63;;;103.30;2227.20;;;;;;5053738;28;20029;-70
2021/01/05 07:36:31;;;;;;;45.30;27.20;;;128.00;2252.80;;;;;;5053899;28;20515;-69
2021/01/05 07:38:57;;;;;;;42.60;26.37;;;103.30;2227.20;;;;;;5053555;28;20496;-70
2021/01/05 07:41:24;;;;;;;46.63;26.87;;;103.30;2227.20;;;;;;5053885;28;20025;-69
2021/01/05 07:43:50;;;;;;;45.37;29.37;;;103.30;2227.20;;;;;;5053515;28;20033;-69
2021/01/05 07:46:16;;;;;;;54.67;31.53;;;103.30;2227.20;;;;;;5053524;28;20021;-69
2021/01/05 07:48:42;;;;;;;59.53;33.87;;;103.30;2227.20;;;;;;5053355;28;20167;-72
2021/01/05 07:51:10;;;;;;;55.27;32.33;;;103.30;2227.20;;;;;;5052113;28;20135;-72
2021/01/05 07:53:36;;;;;;;49.57;29.77;;;103.30;2227.20;;;;;;5053355;28;20053;-72
2021/01/05 07:56:03;;;;;;;40.00;25.87;;;103.20;2227.20;;;;;;5053104;28;20024;-71
2021/01/05 07:58:29;;;;;;;39.00;24.30;;;103.30;2227.20;;;;;;5053315;28;20037;-72
2021/01/05 08:00:55;;;;;;;40.20;25.30;;;103.20;2227.20;;;;;;5053349;28;20105;-71
2021/01/05 08:03:21;;;;;;;40.53;24.23;;;103.20;2227.20;;;;;;5053231;28;20028;-71
2021/01/05 08:05:46;;;;;;;41.07;27.07;;;103.20;2227.20;;;;;;5052821;28;20054;-70
2021/01/05 08:08:12;;;;;;;51.73;31.23;;;103.20;2227.20;;;;;;5051873;28;20036;-69
2021/01/05 08:10:39;;;;;;;51.30;32.40;;;103.30;2227.20;;;;;;5051965;28;20060;-69
2021/01/05 08:13:09;;;;;;;48.97;30.63;;;103.30;2227.20;;;;;;5053235;28;20064;-69
2021/01/05 08:15:36;;;;;;;44.97;28.87;;;128.00;2252.80;;;;;;5052067;28;20470;-70
2021/01/05 08:18:03;;;;;;;51.17;29.67;;;128.00;2252.80;;;;;;5053178;28;20037;-71
2021/01/05 08:20:31;;;;;;;47.47;29.50;;;128.00;2252.80;;;;;;5053224;28;20057;-70
2021/01/05 08:22:59;;;;;;;56.40;31.30;;;103.30;2227.20;;;;;;5053208;28;20481;-70
2021/01/05 08:25:26;;;;;;;46.83;28.77;;;128.00;2252.80;;;;;;5053149;28;20423;-71
2021/01/05 08:27:53;;;;;;;60.03;36.43;;;128.00;2252.80;;;;;;5053088;28;20112;-71
2021/01/05 08:30:20;;;;;;;50.30;30.57;;;128.00;2252.80;;;;;;5052385;28;20108;-71
2021/01/05 08:32:47;;;;;;;47.70;29.87;;;128.00;2252.80;;;;;;5051418;28;20032;-70
2021/01/05 08:35:15;;;;;;;44.90;28.53;;;128.10;2252.80;;;;;;5052462;28;20025;-71
2021/01/05 08:37:41;;;;;;;45.43;27.37;;;128.10;2252.80;;;;;;5052875;28;20166;-70
2021/01/05 08:40:11;;;;;;;55.33;31.73;;;128.20;2252.80;;;;;;5053245;28;20075;-71
2021/01/05 08:42:37;;;;;;;52.30;32.23;;;128.20;2252.80;;;;;;5052931;28;20517;-70
2021/01/05 08:45:05;;;;;;;57.80;33.83;;;128.30;2252.80;;;;;;5051666;28;20083;-70
2021/01/05 08:47:31;;;;;;;51.47;31.10;;;128.30;2252.80;;;;;;5052933;28;20541;-71
2021/01/05 08:49:57;;;;;;;79.43;39.13;;;128.30;2252.80;;;;;;5051614;28;20119;-71
2021/01/05 08:52:23;;;;;;;52.27;28.87;;;128.40;2252.80;;;;;;5052829;28;20025;-70
2021/01/05 08:54:48;;;;;;;37.40;24.23;;;128.30;2252.80;;;;;;5052876;28;20029;-71
2021/01/05 08:57:15;;;;;;;36.23;23.03;;;128.20;2252.80;;;;;;5052576;28;20067;-72
2021/01/05 08:59:41;;;;;;;59.70;36.13;;;128.20;2252.80;;;;;;5052855;28;20039;-71
2021/01/05 09:02:08;;;;;;;60.33;35.13;;;128.30;2252.80;;;;;;5051483;28;20041;-71
2021/01/05 09:04:35;;;;;;;38.20;24.73;;;128.30;2252.80;;;;;;5052888;28;20017;-70
2021/01/05 09:07:01;;;;;;;39.97;25.47;;;128.20;2252.80;;;;;;5052751;28;20025;-71
2021/01/05 09:09:27;;;;;;;39.47;23.80;;;128.10;2252.80;;;;;;5052706;28;20025;-71
2021/01/05 09:11:55;;;;;;;45.70;28.23;;;128.10;2252.80;;;;;;5052736;28;20017;-71
2021/01/05 09:14:21;;;;;;;58.50;33.20;;;128.00;2252.80;;;;;;5051419;28;20017;-72
2021/01/05 09:16:48;;;;;;;49.10;29.05;;;128.00;2252.80;;;;;;5053463;28;20029;-71
2021/01/05 09:19:14;;;;;;;43.63;25.40;;;128.00;2252.80;;;;;;5056356;28;20025;-71
2021/01/05 09:21:40;;;;;;;45.83;29.03;;;128.00;2252.80;;;;;;5056432;28;20048;-71
2021/01/05 09:24:06;;;;;;;41.27;26.03;;;128.00;2252.80;;;;;;5056219;28;20424;-71
2021/01/05 09:26:35;;;;;;;68.70;39.73;;;103.30;2227.20;;;;;;5056141;28;20036;-70
2021/01/05 09:29:06;;;;;;;57.80;36.67;;;128.00;2252.80;;;;;;5056177;28;20039;-70
2021/01/05 09:31:32;;;;;;;43.70;26.93;;;128.00;2252.80;;;;;;5056352;28;20410;-71
2021/01/05 09:33:58;;;;;;;76.97;37.83;;;103.30;2227.20;;;;;;5055992;28;20064;-70
2021/01/05 09:36:31;;;;;;;56.00;32.40;;;128.00;2252.80;;;;;;5055973;28;20377;-71
2021/01/05 09:38:57;;;;;;;50.15;30.90;;;128.00;2252.80;;;;;;5055949;28;20047;-71
2021/01/05 09:41:25;;;;;;;77.93;42.80;;;128.00;2252.80;;;;;;5056004;28;20025;-71
2021/01/05 09:43:52;;;;;;;95.13;56.07;;;128.00;2252.80;;;;;;5055893;28;20017;-70
2021/01/05 09:46:19;;;;;;;68.77;38.57;;;128.10;2252.80;;;;;;5055834;28;20057;-71
2021/01/05 09:48:46;;;;;;;57.57;32.50;;;128.30;2252.80;;;;;;5055913;28;20025;-70
2021/01/05 09:51:27;;;;;;;61.77;40.30;;;128.20;2252.80;;;;;;5055759;28;20029;-70
2021/01/05 09:53:53;;;;;;;52.13;32.07;;;128.40;2252.80;;;;;;5055674;28;20027;-71
2021/01/05 09:56:19;;;;;;;57.87;34.53;;;128.40;2252.80;;;;;;5055409;28;20059;-70
2021/01/05 09:58:46;;;;;;;56.57;34.23;;;128.50;2252.80;;;;;;5055482;28;20051;-71
2021/01/05 10:01:12;;;;;;;62.47;36.57;;;128.40;2252.80;;;;;;5055532;28;20420;-72
2021/01/05 10:03:38;;;;;;;84.63;45.17;;;128.50;2252.80;;;;;;5055507;28;20029;-73
2021/01/05 10:06:05;;;;;;;62.07;36.83;;;128.60;2252.80;;;;;;5055410;28;20048;-71
2021/01/05 10:08:31;;;;;;;46.93;28.60;;;128.60;2252.80;;;;;;5055360;28;20067;-71
2021/01/05 10:10:57;;;;;;;69.97;42.47;;;128.50;2252.80;;;;;;5055507;28;20029;-72
2021/01/05 10:13:23;;;;;;;58.07;36.23;;;128.60;2252.80;;;;;;5055236;28;20025;-71
2021/01/05 10:15:49;;;;;;;50.70;29.07;;;128.70;2252.80;;;;;;5053864;28;20111;-72
2021/01/05 10:18:15;;;;;;;92.80;47.63;;;128.70;2252.80;;;;;;5049958;28;20400;-72
2021/01/05 10:20:41;;;;;;;72.27;41.93;;;128.80;2252.80;;;;;;5053584;28;20099;-73
2021/01/05 10:23:07;;;;;;;57.87;37.23;;;128.70;2252.80;;;;;;5053593;28;20025;-72
2021/01/05 10:25:33;;;;;;;62.37;37.23;;;128.70;2252.80;;;;;;5053660;28;20375;-73
2021/01/05 10:27:59;;;;;;;71.93;43.33;;;128.70;2252.80;;;;;;5033821;28;20411;-73
2021/01/05 10:30:25;;;;;;;65.67;38.73;;;128.80;2252.80;;;;;;5040411;28;20107;-72
2021/01/05 10:32:50;;;;;;;89.90;49.30;;;128.80;2252.80;;;;;;5053811;28;20104;-70
2021/01/05 10:35:19;;;;;;;80.07;44.17;;;128.70;2252.80;;;;;;5053141;28;20477;-72
2021/01/05 10:37:45;;;;;;;101.50;51.37;;;128.70;2252.80;;;;;;5053592;28;20048;-72
2021/01/05 10:40:15;;;;;;;317.30;147.20;;;128.70;2252.80;;;;;;5053271;28;20104;-72
2021/01/05 10:42:42;;;;;;;170.37;83.47;;;128.80;2252.80;;;;;;5053274;28;20067;-71
2021/01/05 10:45:13;;;;;;;280.97;135.27;;;128.80;2252.80;;;;;;5053091;28;20017;-72
2021/01/05 10:47:39;;;;;;;140.90;74.47;;;128.80;2252.80;;;;;;5053107;28;20101;-72
2021/01/05 10:50:10;;;;;;;90.70;52.05;;;128.80;2252.80;;;;;;5053239;28;20449;-72
2021/01/05 10:52:36;;;;;;;72.63;44.87;;;128.70;2252.80;;;;;;5053041;28;20064;-72
2021/01/05 10:55:04;;;;;;;48.07;31.93;;;128.80;2252.80;;;;;;5053105;28;20060;-71
2021/01/05 10:57:29;;;;;;;49.93;31.40;;;128.80;2252.80;;;;;;5052566;28;20045;-71
2021/01/05 10:59:55;;;;;;;60.00;34.47;;;128.80;2252.80;;;;;;5053288;28;20041;-71
2021/01/05 11:02:21;;;;;;;64.70;37.13;;;128.80;2252.80;;;;;;5052813;28;20025;-71
2021/01/05 11:04:47;;;;;;;60.97;37.70;;;128.90;2252.80;;;;;;5052808;28;20037;-71
2021/01/05 11:07:15;;;;;;;62.23;36.07;;;128.90;2252.80;;;;;;5052818;28;20537;-72
2021/01/05 11:09:42;;;;;;;79.60;43.67;;;128.90;2252.80;;;;;;5051781;28;20025;-71
2021/01/05 11:12:10;;;;;;;82.93;40.93;;;128.90;2252.80;;;;;;5052891;28;20032;-72
2021/01/05 11:14:38;;;;;;;63.80;35.77;;;128.80;2252.80;;;;;;5052351;28;20017;-71
2021/01/05 11:17:04;;;;;;;54.93;32.00;;;128.80;2252.80;;;;;;5052934;28;20051;-71
2021/01/05 11:19:30;;;;;;;58.43;34.93;;;128.80;2252.80;;;;;;5052597;28;20033;-72
2021/01/05 11:22:01;;;;;;;61.80;34.80;;;128.90;2252.80;;;;;;5052329;28;20477;-71
2021/01/05 11:24:28;;;;;;;56.43;34.07;;;128.90;2252.80;;;;;;5051184;28;20028;-71
2021/01/05 11:26:55;;;;;;;70.40;40.43;;;128.90;2252.80;;;;;;5052115;28;20535;-71
2021/01/05 11:29:23;;;;;;;61.07;38.70;;;128.90;2252.80;;;;;;5052366;28;20025;-71
2021/01/05 11:32:15;;;;;;;67.97;40.50;;;153.60;2252.80;;;;;;5053116;28;20025;-70
2021/01/05 11:34:42;;;;;;;57.43;33.30;;;153.60;2252.80;;;;;;5052122;28;20020;-71
2021/01/05 11:37:14;;;;;;;44.70;27.50;;;153.60;2252.80;;;;;;5053225;28;20021;-72
2021/01/05 11:39:46;;;;;;;42.60;25.83;;;128.90;2252.80;;;;;;5052544;28;20048;-70
2021/01/05 11:42:13;;;;;;;38.10;24.23;;;128.90;2252.80;;;;;;5052389;28;20024;-72
2021/01/05 11:44:40;;;;;;;59.73;30.00;;;128.90;2252.80;;;;;;5053717;28;20164;-71
2021/01/05 11:47:06;;;;;;;58.90;33.37;;;128.90;2252.80;;;;;;5053970;28;20094;-70
2021/01/05 11:49:32;;;;;;;59.87;35.27;;;153.60;2252.80;;;;;;5053589;28;20021;-70
2021/01/05 11:51:58;;;;;;;53.50;31.33;;;153.60;2252.80;;;;;;5053570;28;20120;-70
2021/01/05 11:54:25;;;;;;;49.97;29.33;;;153.70;2252.80;;;;;;5053042;28;20017;-70
2021/01/05 11:56:58;;;;;;;43.50;25.23;;;153.70;2252.80;;;;;;5052057;28;20044;-70
2021/01/05 11:59:26;;;;;;;45.00;27.00;;;153.80;2252.80;;;;;;5051192;28;20500;-70
2021/01/05 12:01:53;;;;;;;52.40;29.60;;;153.70;2252.80;;;;;;5052692;28;20444;-71
2021/01/05 12:04:19;;;;;;;38.03;24.13;;;153.70;2252.80;;;;;;5053044;28;20473;-70
2021/01/05 12:06:52;;;;;;;44.40;28.20;;;153.80;2252.80;;;;;;5053055;28;20041;-70
2021/01/05 12:09:19;;;;;;;;;;;153.80;2252.80;;;;;;5053387;28;20032;-70
2021/01/05 12:11:45;;;;;;;48.45;29.45;;;153.90;2252.80;;;;;;5053142;28;19913;-71
2021/01/05 12:14:13;;;;;;;47.33;30.80;;;153.90;2252.80;;;;;;5052686;28;20092;-71